Time;durP1;ratioP1;P1;durP2;ratioP2;P2;SDS_P1;SDS_P2;PMS_P1;PMS_P2;Temp;Humidity;BMP_temperature;BMP_pressure;BME280_temperature;BME280_humidity;BME280_pressure;Samples;Min_cycle;Max_cycle;Signal;HPM_P1;HPM_P2
2022/11/05 00:09:30;;;;;;;;;12.75;10.75;;;;;11.53;61.68;101387.94;5048966;28;45951;-64
2022/11/05 00:17:26;;;;;;;;;18.00;14.25;;;;;11.44;61.22;101380.50;5057750;28;45414;-64
2022/11/05 00:19:51;;;;;;;;;15.75;11.25;;;;;11.51;62.44;101399.44;5049870;28;45537;-63
2022/11/05 00:25:16;;;;;;;;;14.50;12.00;;;;;11.51;62.29;101389.63;5060005;28;45218;-64
2022/11/05 00:27:43;;;;;;;;;9.00;9.00;;;;;11.52;61.23;101401.28;5060027;28;45285;-62
2022/11/05 00:30:09;;;;;;;;;12.25;10.00;;;;;11.52;61.84;101396.81;5054970;28;45987;-63
2022/11/05 00:32:34;;;;;;;;;8.25;8.25;;;;;11.48;61.49;101384.19;5052101;28;45173;-64
2022/11/05 00:35:00;;;;;;;;;11.00;8.50;;;;;11.53;61.54;101395.03;5038778;28;45246;-63
2022/11/05 00:37:28;;;;;;;;;10.25;8.00;;;;;11.42;60.67;101379.56;5050090;28;45314;-63
2022/11/05 00:39:54;;;;;;;;;8.25;8.25;;;;;11.46;61.83;101395.72;5048977;28;45289;-63
2022/11/05 00:45:05;;;;;;;;;11.50;6.00;;;;;11.39;61.82;101394.59;5053191;28;45011;-63
2022/11/05 00:50:16;;;;;;;;;9.00;7.75;;;;;11.44;61.22;101409.03;5054264;28;45296;-63
2022/11/05 00:52:54;;;;;;;;;6.00;6.00;;;;;11.41;60.77;101401.81;5056822;28;45263;-63
2022/11/05 00:55:20;;;;;;;;;8.50;8.50;;;;;11.35;61.38;101393.59;5051223;28;45208;-63
2022/11/05 00:57:45;;;;;;;;;9.25;8.25;;;;;11.38;61.42;101408.81;5045075;28;45006;-64
2022/11/05 01:00:11;;;;;;;;;11.00;8.00;;;;;10.98;61.61;101348.63;5048233;28;49138;-61
2022/11/05 01:02:36;;;;;;;;;8.75;7.25;;;;;11.38;61.06;101408.81;5061102;28;45073;-62
2022/11/05 01:05:02;;;;;;;;;7.50;7.50;;;;;11.43;61.31;101400.09;5051843;28;46378;-62
2022/11/05 01:07:27;;;;;;;;;11.75;9.00;;;;;11.51;61.17;101404.78;5058416;28;45162;-63
2022/11/05 01:09:53;;;;;;;;;8.25;5.25;;;;;11.51;60.78;101394.97;5052643;28;52360;-63
2022/11/05 01:12:18;;;;;;;;;5.25;5.25;;;;;11.47;60.98;101386.84;5062725;28;45376;-64
2022/11/05 01:14:43;;;;;;;;;11.50;9.25;;;;;11.53;61.26;101401.31;5054378;28;51415;-64
2022/11/05 01:17:08;;;;;;;;;10.50;7.75;;;;;11.49;60.49;101383.34;5049002;28;45580;-63
2022/11/05 01:19:34;;;;;;;;;9.75;8.00;;;;;11.53;60.41;101397.72;5051222;28;45880;-64
2022/11/05 01:21:59;;;;;;;;;8.75;6.75;;;;;11.56;60.58;101405.84;5049361;28;45016;-62
2022/11/05 01:24:24;;;;;;;;;15.75;12.50;;;;;11.58;60.88;101399.69;5053093;28;45401;-63
2022/11/05 01:26:50;;;;;;;;;9.00;7.50;;;;;11.50;60.12;101387.84;5056970;28;44906;-63
2022/11/05 01:29:15;;;;;;;;;11.75;8.75;;;;;11.51;60.52;101384.28;5054186;28;45018;-64
2022/11/05 01:31:40;;;;;;;;;6.75;6.75;;;;;11.56;61.03;101400.50;5050689;28;49967;-65
2022/11/05 01:34:06;;;;;;;;;13.75;7.25;;;;;11.57;60.25;101395.19;5050273;28;45486;-62
2022/11/05 01:36:31;;;;;;;;;11.75;6.00;;;;;11.54;60.25;101400.44;5053585;28;45027;-62
2022/11/05 01:38:56;;;;;;;;;6.75;6.50;;;;;11.52;60.19;101393.25;5052535;28;45147;-63
2022/11/05 01:41:22;;;;;;;;;8.25;7.75;;;;;11.55;61.07;101404.94;5054510;28;53055;-63
2022/11/05 01:43:48;;;;;;;;;7.00;7.00;;;;;11.54;61.14;101403.13;5051639;28;45200;-62
2022/11/05 01:46:18;;;;;;;;;7.75;7.75;;;;;11.50;61.24;101397.59;5059247;28;45129;-63
2022/11/05 01:48:46;;;;;;;;;7.50;7.50;;;;;11.51;60.67;101399.44;5055904;28;46460;-63
2022/11/05 01:51:17;;;;;;;;;14.50;9.75;;;;;11.53;60.80;101408.41;5060905;28;45085;-63
2022/11/05 01:53:47;;;;;;;;;11.00;10.00;;;;;11.55;61.75;101412.03;5053216;28;45255;-62
2022/11/05 01:56:25;;;;;;;;;29.50;23.75;;;;;11.58;60.49;101407.72;5056954;28;45654;-64
2022/11/05 01:59:01;;;;;;;;;38.25;30.00;;;;;11.56;60.97;101414.78;5059462;28;45889;-63
2022/11/05 02:01:26;;;;;;;;;19.25;16.25;;;;;11.60;61.32;101405.09;5054574;28;45154;-62
2022/11/05 02:03:56;;;;;;;;;19.00;15.25;;;;;11.50;60.37;101390.50;5055796;28;44959;-62
2022/11/05 02:06:22;;;;;;;;;18.00;14.25;;;;;11.63;60.33;101410.53;5057908;28;45064;-63
2022/11/05 02:09:11;;;;;;;;;13.25;10.00;;;;;11.64;60.91;101404.34;5060088;28;46354;-63
2022/11/05 02:11:37;;;;;;;;;12.00;9.25;;;;;11.62;60.39;101411.41;5055941;28;44998;-62
2022/11/05 02:14:02;;;;;;;;;11.25;9.50;;;;;11.55;60.85;101396.91;5056179;28;45510;-63
2022/11/05 02:16:33;;;;;;;;;18.50;14.25;;;;;11.62;61.01;101406.97;5057496;28;45356;-63
2022/11/05 02:19:06;;;;;;;;;13.25;13.25;;;;;11.61;61.40;101402.47;5057799;28;45828;-63
2022/11/05 02:21:51;;;;;;;;;19.00;12.50;;;;;11.59;61.63;101390.78;5062856;28;45253;-63
2022/11/05 02:24:37;;;;;;;;;11.50;9.25;;;;;11.65;61.22;101399.88;5021475;28;45177;-62
2022/11/05 02:27:23;;;;;;;;;11.50;9.00;;;;;11.59;61.47;101404.19;5004647;28;45596;-63
2022/11/05 02:30:19;;;;;;;;;11.75;11.75;;;;;11.60;61.25;101397.97;5059469;28;45142;-63
2022/11/05 02:33:10;;;;;;;;;6.50;6.00;;;;;11.64;61.04;101408.78;5015043;28;45379;-63
2022/11/05 02:35:53;;;;;;;;;17.50;13.25;;;;;11.57;60.54;101399.66;5053832;28;45178;-63
2022/11/05 02:38:38;;;;;;;;;24.75;19.50;;;;;11.61;61.10;101406.91;5050976;28;45438;-63
2022/11/05 02:41:17;;;;;;;;;9.00;8.50;;;;;11.60;60.95;101406.00;5056727;28;46585;-63
2022/11/05 02:43:51;;;;;;;;;10.25;10.25;;;;;11.59;61.01;101414.88;5059413;28;45546;-64
2022/11/05 02:46:39;;;;;;;;;5.00;5.00;;;;;11.53;61.33;101412.03;5055136;28;45209;-63
2022/11/05 02:49:13;;;;;;;;;5.33;5.33;;;;;11.47;61.27;101417.16;5052981;28;45206;-63
2022/11/05 02:51:51;;;;;;;;;8.25;8.00;;;;;11.31;61.59;101393.44;5050807;28;45426;-65
2022/11/05 02:54:26;;;;;;;;;9.50;6.25;;;;;11.42;61.23;101406.31;5049766;28;45101;-62
2022/11/05 02:56:55;;;;;;;;;9.75;9.00;;;;;11.44;61.81;101409.94;5052634;28;45132;-63
2022/11/05 02:59:20;;;;;;;;;9.75;7.75;;;;;11.44;61.47;101403.69;5053427;28;45112;-62
2022/11/05 03:01:47;;;;;;;;;7.50;7.00;;;;;11.49;61.25;101404.75;5056898;28;47035;-63
2022/11/05 03:04:18;;;;;;;;;9.50;8.25;;;;;11.47;61.97;101401.13;5051921;28;45985;-63
2022/11/05 03:07:02;;;;;;;;;9.75;9.00;;;;;11.49;62.03;101403.84;5050795;28;45106;-62
2022/11/05 03:09:51;;;;;;;;;8.00;8.00;;;;;11.51;61.58;101389.63;5054015;28;45081;-64
2022/11/05 03:12:29;;;;;;;;;13.67;7.33;;;;;11.52;61.55;101395.91;5051686;28;46014;-63
2022/11/05 03:15:22;;;;;;;;;6.50;5.00;;;;;11.50;61.28;101402.97;5054648;28;45285;-62
2022/11/05 03:18:05;;;;;;;;;6.50;6.00;;;;;11.48;61.26;101394.88;5060006;28;44899;-63
2022/11/05 03:20:48;;;;;;;;;5.25;5.25;;;;;11.42;61.80;101389.34;5055869;28;45202;-62
2022/11/05 03:23:43;;;;;;;;;7.50;5.75;;;;;11.44;62.39;101395.66;5063243;28;45106;-63
2022/11/05 03:26:50;;;;;;;;;11.50;7.25;;;;;11.44;62.29;101399.22;5053379;28;44997;-63
2022/11/05 03:29:22;;;;;;;;;4.50;4.50;;;;;11.43;61.73;101401.84;5029864;28;44909;-63
2022/11/05 03:31:50;;;;;;;;;7.75;7.00;;;;;11.43;62.20;101400.09;5054343;28;45811;-63
2022/11/05 03:34:20;;;;;;;;;9.00;6.50;;;;;11.42;62.60;101394.69;5055829;28;45262;-63
2022/11/05 03:36:54;;;;;;;;;11.67;6.67;;;;;11.42;62.76;101394.69;5053791;28;45341;-63
2022/11/05 03:39:26;;;;;;;;;7.25;6.25;;;;;11.44;62.32;101406.34;5054738;28;46006;-62
2022/11/05 03:41:54;;;;;;;;;4.67;4.33;;;;;11.39;62.49;101399.94;5058406;28;45119;-63
2022/11/05 03:44:26;;;;;;;;;6.75;5.50;;;;;11.34;62.18;101385.50;5059285;28;45225;-62
2022/11/05 03:46:58;;;;;;;;;7.00;5.33;;;;;11.36;62.49;101379.34;5054399;28;45262;-63
2022/11/05 03:49:29;;;;;;;;;6.00;4.50;;;;;11.40;62.63;101388.38;5053288;28;45228;-63
2022/11/05 03:52:01;;;;;;;;;8.50;7.00;;;;;11.43;62.51;101388.47;5051877;28;44958;-63
2022/11/05 03:54:27;;;;;;;;;8.00;7.00;;;;;10.99;62.18;101305.91;5050966;28;45610;-63
2022/11/05 03:57:05;;;;;;;;;6.00;6.00;;;;;11.37;62.13;101374.91;5057181;28;45126;-62
2022/11/05 03:59:37;;;;;;;;;4.25;4.25;;;;;11.37;62.76;101390.97;5056642;28;45191;-62
2022/11/05 04:02:02;;;;;;;;;5.00;5.00;;;;;11.38;61.88;101396.38;5058246;28;45140;-62
2022/11/05 04:04:28;;;;;;;;;6.00;5.50;;;;;11.39;62.02;101389.25;5055377;28;67525;-62
2022/11/05 04:15:05;;;;;;;;;4.25;4.00;;;;;11.43;62.17;101394.75;5064826;28;45134;-63
2022/11/05 04:17:31;;;;;;;;;4.25;4.25;;;;;11.39;61.98;101381.22;5052210;28;45145;-62
2022/11/05 04:25:24;;;;;;;;;8.75;7.25;;;;;11.43;62.39;101399.19;5052363;28;45574;-62
2022/11/05 04:27:51;;;;;;;;;7.50;5.25;;;;;11.43;62.32;101401.84;5051042;28;47555;-62
2022/11/05 04:30:18;;;;;;;;;3.00;3.00;;;;;11.34;62.34;101402.47;5051673;28;45113;-63
2022/11/05 04:33:01;;;;;;;;;7.00;4.67;;;;;11.37;62.27;101413.28;5053313;28;45200;-62
2022/11/05 04:35:38;;;;;;;;;9.33;4.00;;;;;11.40;62.87;101415.13;5051983;28;46050;-62
2022/11/05 04:38:06;;;;;;;;;4.50;4.25;;;;;11.39;62.12;101422.25;5052721;28;44999;-63
2022/11/05 04:40:32;;;;;;;;;5.50;4.00;;;;;11.42;62.71;101417.00;5052734;28;45319;-62
2022/11/05 04:42:58;;;;;;;;;4.33;4.33;;;;;11.44;62.02;101414.38;5049763;28;44930;-62
2022/11/05 04:45:25;;;;;;;;;5.25;5.00;;;;;11.45;62.09;101418.88;5056856;28;45438;-63
2022/11/05 04:47:51;;;;;;;;;4.00;3.33;;;;;11.46;62.85;101412.66;5061931;28;45305;-61
2022/11/05 04:50:16;;;;;;;;;4.00;4.00;;;;;11.44;61.96;101401.91;5055130;28;45171;-62
2022/11/05 04:52:42;;;;;;;;;6.00;3.00;;;;;11.49;62.63;101406.50;5058711;28;45205;-62
2022/11/05 04:55:08;;;;;;;;;5.25;4.25;;;;;11.52;62.71;101412.88;5052614;28;45635;-63
2022/11/05 04:57:33;;;;;;;;;5.00;5.00;;;;;11.52;62.45;101410.19;5050807;28;45274;-63
2022/11/05 04:59:59;;;;;;;;;4.00;2.33;;;;;11.57;62.05;101413.03;5053522;28;45199;-62
2022/11/05 05:02:24;;;;;;;;;7.00;6.00;;;;;11.58;62.63;101415.75;5051490;28;45219;-63
2022/11/05 05:04:50;;;;;;;;;7.00;4.33;;;;;11.57;62.44;101424.63;5053619;28;45805;-62
2022/11/05 05:07:15;;;;;;;;;7.00;3.33;;;;;11.54;61.88;101415.59;5049202;28;47861;-62
2022/11/05 05:09:40;;;;;;;;;4.00;2.67;;;;;11.16;61.65;101354.59;5049251;28;45291;-63
2022/11/05 05:12:07;;;;;;;;;5.67;5.67;;;;;11.58;62.23;101431.81;5054495;28;45029;-63
2022/11/05 05:14:33;;;;;;;;;5.33;4.00;;;;;11.58;61.96;101429.13;5055938;28;45720;-63
2022/11/05 05:16:58;;;;;;;;;6.00;5.00;;;;;11.60;62.21;101437.22;5052768;28;44858;-63
2022/11/05 05:19:24;;;;;;;;;4.33;4.00;;;;;11.50;62.09;101417.28;5054171;28;45175;-63
2022/11/05 05:21:50;;;;;;;;;4.67;4.00;;;;;11.53;61.81;101421.81;5054763;28;45351;-63
2022/11/05 05:24:18;;;;;;;;;4.50;4.50;;;;;11.63;61.88;101429.25;5060506;28;45326;-63
2022/11/05 05:26:46;;;;;;;;;3.00;1.00;;;;;11.62;61.95;101424.78;5047947;28;45248;-63
2022/11/05 05:29:13;;;;;;;;;5.33;5.33;;;;;11.70;61.83;101435.75;5061069;28;44998;-63
2022/11/05 05:31:39;;;;;;;;;4.00;4.00;;;;;11.69;61.98;101440.19;5069793;28;45104;-63
2022/11/05 05:34:05;;;;;;;;;5.50;4.00;;;;;11.70;62.19;101433.97;5064260;28;46428;-64
2022/11/05 05:36:31;;;;;;;;;6.33;5.00;;;;;11.66;61.61;101431.16;5061802;28;45232;-62
2022/11/05 05:38:56;;;;;;;;;4.75;4.75;;;;;11.66;61.97;101437.41;5068907;28;45151;-62
2022/11/05 05:41:22;;;;;;;;;9.00;6.50;;;;;11.58;61.67;101433.56;5060907;28;44929;-62
2022/11/05 05:43:48;;;;;;;;;6.75;5.50;;;;;11.60;61.86;101435.44;5056131;28;45710;-62
2022/11/05 05:46:15;;;;;;;;;6.50;4.75;;;;;11.40;62.38;101402.69;5040668;28;45361;-63
2022/11/05 05:48:41;;;;;;;;;6.33;3.00;;;;;11.52;62.02;101430.72;5053675;28;45124;-63
2022/11/05 05:51:10;;;;;;;;;4.00;4.00;;;;;11.46;61.76;101431.38;5058250;28;45203;-62
2022/11/05 05:53:35;;;;;;;;;6.50;6.00;;;;;11.50;62.22;101453.81;5053098;28;45669;-63
2022/11/05 05:56:01;;;;;;;;;4.33;3.33;;;;;11.44;62.77;101436.69;5049937;28;45327;-63
2022/11/05 05:58:31;;;;;;;;;4.75;4.75;;;;;11.46;62.58;101431.38;5049222;28;44997;-63
2022/11/05 06:01:01;;;;;;;;;3.00;3.00;;;;;11.47;62.37;101424.28;5057766;28;45348;-62
2022/11/05 06:03:27;;;;;;;;;7.50;4.50;;;;;11.52;62.62;101438.72;5057198;28;45111;-62
2022/11/05 06:05:52;;;;;;;;;3.33;3.00;;;;;11.43;62.41;101424.19;5055428;28;45153;-62
2022/11/05 06:08:17;;;;;;;;;5.25;4.00;;;;;11.45;62.34;101437.63;5060957;28;45169;-63
2022/11/05 06:10:50;;;;;;;;;5.00;5.00;;;;;11.45;62.50;101432.28;5060184;28;45294;-62
2022/11/05 06:13:15;;;;;;;;;4.00;4.00;;;;;11.48;63.00;101442.16;5053489;28;46383;-63
2022/11/05 06:15:40;;;;;;;;;15.75;11.50;;;;;11.51;62.34;101447.59;5052743;28;44992;-62
2022/11/05 06:18:05;;;;;;;;;4.33;4.33;;;;;11.53;62.18;101445.88;5051599;28;55130;-62
2022/11/05 06:20:31;;;;;;;;;7.25;6.25;;;;;11.52;62.13;101450.34;5063673;28;46877;-61
2022/11/05 06:22:56;;;;;;;;;5.00;5.00;;;;;11.39;62.32;101440.06;5051956;28;46066;-62
2022/11/05 06:25:23;;;;;;;;;5.67;5.67;;;;;11.46;62.41;101455.47;5050654;28;45271;-62
2022/11/05 06:27:48;;;;;;;;;5.00;3.33;;;;;11.46;62.37;101458.16;5049681;28;45269;-63
2022/11/05 06:30:14;;;;;;;;;5.00;3.25;;;;;11.45;62.80;101456.34;5051886;28;45175;-62
2022/11/05 06:32:39;;;;;;;;;5.67;4.33;;;;;11.44;62.42;101459.88;5050185;28;45245;-62
2022/11/05 06:35:05;;;;;;;;;6.67;5.00;;;;;11.45;62.71;101464.38;5054995;28;57284;-62
2022/11/05 06:37:32;;;;;;;;;4.00;3.33;;;;;11.46;62.21;101466.19;5055424;28;45406;-63
2022/11/05 06:39:58;;;;;;;;;6.00;2.00;;;;;11.40;62.35;101447.22;5052958;28;45085;-61
2022/11/05 06:42:24;;;;;;;;;6.33;4.00;;;;;11.43;62.97;101453.63;5052396;28;45117;-62
2022/11/05 06:44:50;;;;;;;;;5.00;4.75;;;;;11.47;63.07;101457.31;5058719;28;46136;-62
2022/11/05 06:47:16;;;;;;;;;7.33;4.00;;;;;11.47;62.82;101451.94;5058017;28;45421;-62
2022/11/05 06:49:41;;;;;;;;;8.75;6.00;;;;;11.53;63.34;101460.19;5053241;28;45292;-62
2022/11/05 06:52:06;;;;;;;;;3.00;3.00;;;;;11.54;62.93;101463.78;5056431;28;45864;-63
2022/11/05 06:54:32;;;;;;;;;5.50;3.75;;;;;11.58;62.34;101471.03;5052289;28;49776;-63
2022/11/05 06:56:57;;;;;;;;;9.67;5.00;;;;;11.51;62.38;101463.66;5054088;28;47104;-63
2022/11/05 06:59:22;;;;;;;;;5.67;5.00;;;;;11.57;62.33;101475.47;5053209;28;49236;-63
2022/11/05 07:01:48;;;;;;;;;8.00;5.00;;;;;11.53;62.46;101461.94;5052107;28;45968;-61
2022/11/05 07:04:13;;;;;;;;;4.00;4.00;;;;;11.62;62.15;101473.88;5064521;28;54928;-62
2022/11/05 07:06:38;;;;;;;;;3.50;1.50;;;;;11.58;62.04;101460.31;5060555;28;45222;-62
2022/11/05 07:09:04;;;;;;;;;7.67;5.00;;;;;11.61;62.36;101476.50;5060595;28;45100;-62
2022/11/05 07:11:29;;;;;;;;;7.00;3.67;;;;;11.58;62.47;101485.34;5057729;28;45825;-62
2022/11/05 07:13:55;;;;;;;;;5.67;4.00;;;;;11.58;62.19;101477.31;5060726;28;45218;-62
2022/11/05 07:16:20;;;;;;;;;8.00;5.00;;;;;11.62;62.26;101478.31;5060933;28;45143;-62
2022/11/05 07:18:45;;;;;;;;;5.00;4.00;;;;;11.63;62.56;101480.13;5053675;28;45286;-63
2022/11/05 07:21:10;;;;;;;;;5.50;5.50;;;;;11.64;61.89;101483.72;5055451;28;55561;-62
2022/11/05 07:23:36;;;;;;;;;7.00;4.00;;;;;11.65;61.95;101488.19;5054048;28;45302;-62
2022/11/05 07:26:01;;;;;;;;;6.75;6.00;;;;;11.65;61.90;101473.06;5053652;28;45064;-63
2022/11/05 07:28:26;;;;;;;;;6.00;4.67;;;;;11.70;62.07;101481.28;5058397;28;45050;-62
2022/11/05 07:30:52;;;;;;;;;4.00;4.00;;;;;11.67;62.45;101471.34;5050881;28;45758;-63
2022/11/05 07:33:18;;;;;;;;;8.75;8.75;;;;;11.76;61.73;101481.44;5054027;28;45150;-62
2022/11/05 07:35:43;;;;;;;;;7.00;7.00;;;;;11.77;61.68;101484.19;5057172;28;45040;-63
2022/11/05 07:38:09;;;;;;;;;5.75;5.75;;;;;11.82;61.24;101491.47;5057854;28;45104;-63
2022/11/05 07:40:35;;;;;;;;;5.00;5.00;;;;;11.82;60.97;101486.13;5056217;28;46009;-63
2022/11/05 07:43:01;;;;;;;;;6.00;5.00;;;;;11.78;61.66;101493.16;5051886;28;44974;-62
2022/11/05 07:45:28;;;;;;;;;6.50;6.50;;;;;11.78;61.16;101490.47;5056575;28;45044;-61
2022/11/05 07:48:01;;;;;;;;;5.00;3.75;;;;;11.78;61.70;101498.50;5053883;28;45792;-63
2022/11/05 07:50:29;;;;;;;;;3.50;3.50;;;;;11.82;61.22;101510.22;5060271;28;46083;-61
2022/11/05 07:53:02;;;;;;;;;4.67;3.33;;;;;11.79;62.05;101503.88;5055220;28;45162;-62
2022/11/05 07:55:28;;;;;;;;;6.25;5.50;;;;;11.81;61.76;101506.59;5054717;28;45166;-62
2022/11/05 07:57:54;;;;;;;;;5.33;2.33;;;;;11.76;61.27;101498.44;5056960;28;45023;-62
2022/11/05 08:00:21;;;;;;;;;4.00;4.00;;;;;11.80;61.24;101499.44;5067492;28;45955;-62
2022/11/05 08:03:04;;;;;;;;;8.75;5.75;;;;;11.75;61.71;101491.25;5055388;28;45200;-62
2022/11/05 08:05:33;;;;;;;;;6.00;4.00;;;;;11.73;61.68;101484.94;5058094;28;44946;-63
2022/11/05 08:07:59;;;;;;;;;7.25;4.75;;;;;11.87;61.11;101503.25;5054333;28;45054;-62
2022/11/05 08:10:24;;;;;;;;;4.00;4.00;;;;;11.88;61.28;101497.00;5059955;28;45132;-62
2022/11/05 08:12:54;;;;;;;;;5.00;4.00;;;;;11.95;61.06;101516.03;5064414;28;45263;-62
2022/11/05 08:15:20;;;;;;;;;8.00;5.33;;;;;12.02;61.46;101509.13;5057609;28;44966;-62
2022/11/05 08:17:46;;;;;;;;;6.67;5.00;;;;;12.07;61.10;101512.84;5053397;28;45258;-61
2022/11/05 08:20:12;;;;;;;;;7.00;4.33;;;;;12.05;60.11;101500.28;5060983;28;45283;-62
2022/11/05 08:22:43;;;;;;;;;4.25;3.50;;;;;12.14;60.53;101516.63;5061080;28;45094;-62
2022/11/05 08:25:10;;;;;;;;;6.00;5.00;;;;;12.15;59.98;101510.44;5053268;28;45218;-63
2022/11/05 08:27:36;;;;;;;;;5.00;4.00;;;;;12.15;60.70;101495.25;5051779;28;45365;-63
2022/11/05 08:30:03;;;;;;;;;3.33;3.33;;;;;12.21;60.42;101513.31;5060910;28;45383;-63
2022/11/05 08:32:28;;;;;;;;;5.67;4.00;;;;;12.24;60.42;101504.44;5059335;28;45194;-61
2022/11/05 08:34:54;;;;;;;;;4.00;4.00;;;;;12.26;59.91;101517.06;5054650;28;45155;-63
2022/11/05 08:37:19;;;;;;;;;7.00;5.67;;;;;12.28;59.60;101507.28;5050790;28;45443;-62
2022/11/05 08:39:44;;;;;;;;;7.00;4.00;;;;;12.24;59.66;101499.09;5058134;28;45529;-62
2022/11/05 08:42:10;;;;;;;;;5.33;4.00;;;;;12.28;59.54;101501.94;5061647;28;45207;-63
2022/11/05 08:44:35;;;;;;;;;7.50;5.50;;;;;12.33;60.58;101513.69;5058838;28;45226;-62
2022/11/05 08:47:00;;;;;;;;;8.33;7.00;;;;;12.38;60.50;101515.63;5054630;28;45359;-63
2022/11/05 08:49:25;;;;;;;;;6.00;4.67;;;;;12.41;59.87;101511.25;5057681;28;45350;-65
2022/11/05 08:51:51;;;;;;;;;7.75;7.00;;;;;12.45;59.32;101531.03;5057761;28;49006;-63
2022/11/05 08:54:16;;;;;;;;;5.00;3.00;;;;;12.34;58.90;101496.75;5051978;28;45213;-62
2022/11/05 08:56:41;;;;;;;;;7.00;5.67;;;;;12.54;59.37;101523.28;5062391;28;45985;-63
2022/11/05 08:59:07;;;;;;;;;5.00;3.67;;;;;12.59;58.52;101523.41;5055245;28;45830;-65
2022/11/05 09:01:33;;;;;;;;;2.67;2.67;;;;;12.67;59.35;101536.19;5061859;28;45284;-63
2022/11/05 09:03:58;;;;;;;;;7.67;4.67;;;;;12.70;58.78;101530.94;5048780;28;45056;-67
2022/11/05 09:06:24;;;;;;;;;10.00;8.75;;;;;12.83;58.55;101532.19;5058781;28;45241;-64
2022/11/05 09:08:49;;;;;;;;;4.33;4.33;;;;;12.94;58.15;101532.50;5060497;28;45749;-63
2022/11/05 09:11:15;;;;;;;;;9.67;6.00;;;;;13.00;57.75;101523.72;5053334;28;45763;-64
2022/11/05 09:13:40;;;;;;;;;4.00;4.00;;;;;13.03;57.92;101516.69;5060548;28;46124;-63
2022/11/05 09:16:16;;;;;;;;;9.00;6.00;;;;;13.03;58.57;101511.34;5063526;28;45316;-63
2022/11/05 09:18:41;;;;;;;;;5.00;4.67;;;;;13.12;57.51;101515.13;5057233;28;45294;-62
2022/11/05 09:21:07;;;;;;;;;5.33;5.33;;;;;13.04;57.43;101499.72;5057487;28;45433;-65
2022/11/05 09:23:32;;;;;;;;;5.33;3.67;;;;;13.18;56.98;101510.84;5060027;28;45651;-62
2022/11/05 09:25:57;;;;;;;;;5.00;5.00;;;;;13.20;57.63;101501.06;5063715;28;45316;-62
2022/11/05 09:28:24;;;;;;;;;3.00;3.00;;;;;13.21;56.82;101500.19;5057074;28;45717;-65
2022/11/05 09:30:51;;;;;;;;;3.67;3.00;;;;;13.25;57.29;101503.88;5057569;28;44982;-63
2022/11/05 09:33:20;;;;;;;;;4.67;4.67;;;;;13.30;56.71;101501.28;5054798;28;45423;-63
2022/11/05 09:35:45;;;;;;;;;4.33;4.00;;;;;13.36;56.60;101502.41;5053958;28;45177;-63
2022/11/05 09:38:11;;;;;;;;;6.33;4.33;;;;;13.45;57.00;101512.50;5061731;28;45142;-64
2022/11/05 09:41:01;;;;;;;;;3.67;3.00;;;;;13.52;55.75;101509.09;5055977;28;45211;-64
2022/11/05 09:43:38;;;;;;;;;4.00;4.00;;;;;13.61;56.04;101505.75;5051659;28;45175;-63
2022/11/05 09:46:12;;;;;;;;;5.33;3.00;;;;;13.68;55.30;101507.75;5044624;28;45478;-64
2022/11/05 09:48:39;;;;;;;;;6.00;2.00;;;;;13.72;55.76;101504.25;5052753;28;46502;-63
2022/11/05 09:51:05;;;;;;;;;4.00;4.00;;;;;13.77;55.04;101504.38;5049299;28;45558;-65
2022/11/05 09:53:32;;;;;;;;;4.00;4.00;;;;;13.80;55.24;101509.81;5049365;28;45502;-66
2022/11/05 09:55:59;;;;;;;;;2.67;2.67;;;;;13.86;55.09;101512.66;5043603;28;45482;-62
2022/11/05 09:58:54;;;;;;;;;5.00;4.00;;;;;13.75;54.77;101481.94;5042649;28;45754;-63
2022/11/05 10:01:24;;;;;;;;;8.67;4.00;;;;;13.90;54.26;101501.13;5018471;28;45619;-64
2022/11/05 10:03:54;;;;;;;;;5.67;2.67;;;;;13.61;54.34;101452.03;5035636;28;45532;-64
2022/11/05 10:06:23;;;;;;;;;2.00;2.00;;;;;13.96;54.30;101511.13;5042130;28;45493;-63
2022/11/05 10:08:56;;;;;;;;;3.00;2.00;;;;;14.01;54.60;101513.03;5053272;28;46424;-64
2022/11/05 10:11:33;;;;;;;;;4.00;4.00;;;;;14.07;54.50;101504.22;5061112;28;45179;-64
2022/11/05 10:14:08;;;;;;;;;4.00;4.00;;;;;14.12;54.26;101493.56;5055720;28;45152;-63
2022/11/05 10:16:37;;;;;;;;;2.33;2.33;;;;;14.09;53.78;101486.38;5054628;28;45215;-63
2022/11/05 10:19:15;;;;;;;;;10.67;5.00;;;;;14.13;53.68;101490.03;5058518;28;45738;-63
2022/11/05 10:21:40;;;;;;;;;6.00;5.00;;;;;14.14;53.76;101492.75;5058049;28;45250;-64
2022/11/05 10:24:13;;;;;;;;;6.33;4.33;;;;;14.16;53.65;101499.06;5052380;28;46449;-62
2022/11/05 10:26:38;;;;;;;;;3.67;1.33;;;;;14.21;53.77;101499.19;5048980;28;45560;-63
2022/11/05 10:29:04;;;;;;;;;2.00;2.00;;;;;14.18;53.38;101494.63;5043227;28;46238;-63
2022/11/05 10:31:34;;;;;;;;;4.00;4.00;;;;;14.25;53.97;101505.53;5037650;28;45741;-64
2022/11/05 10:34:03;;;;;;;;;4.00;4.00;;;;;14.16;53.68;101487.41;5046403;28;45526;-64
2022/11/05 10:36:32;;;;;;;;;5.00;3.67;;;;;14.28;53.65;101508.28;5039975;28;45496;-64
2022/11/05 10:39:09;;;;;;;;;4.67;3.00;;;;;14.26;53.56;101504.66;5037951;28;45838;-63
2022/11/05 10:41:42;;;;;;;;;3.33;2.33;;;;;14.29;53.46;101512.81;5025949;28;46644;-64
2022/11/05 10:44:29;;;;;;;;;1.67;1.00;;;;;14.27;53.23;101515.47;5033694;28;45327;-62
2022/11/05 10:47:28;;;;;;;;;6.00;3.33;;;;;14.30;53.56;101523.56;5066141;28;45074;-64
2022/11/05 10:49:57;;;;;;;;;6.00;3.00;;;;;14.31;53.54;101514.66;5053956;28;45729;-62
2022/11/05 10:52:35;;;;;;;;;3.00;3.00;;;;;14.25;54.00;101500.16;5058809;28;45151;-62
2022/11/05 10:55:15;;;;;;;;;2.00;2.00;;;;;14.32;54.03;101507.47;5041223;28;45503;-64
2022/11/05 10:57:41;;;;;;;;;2.00;2.00;;;;;14.35;53.86;101508.47;5042625;28;45554;-63
2022/11/05 11:00:15;;;;;;;;;2.67;2.00;;;;;14.39;54.11;101512.16;5034459;28;46272;-63
2022/11/05 11:03:02;;;;;;;;;3.00;3.00;;;;;14.45;54.02;101519.44;5039375;28;45420;-64
2022/11/05 11:05:39;;;;;;;;;5.00;4.00;;;;;14.47;54.26;101506.91;5039844;28;45403;-62
2022/11/05 11:08:10;;;;;;;;;3.33;2.33;;;;;14.48;54.23;101508.75;5043560;28;45440;-62
2022/11/05 11:10:40;;;;;;;;;5.00;1.67;;;;;14.50;53.98;101510.63;5025207;28;45564;-62
2022/11/05 11:13:18;;;;;;;;;4.00;2.00;;;;;14.51;54.23;101509.72;5043116;28;45448;-62
2022/11/05 11:15:43;;;;;;;;;5.00;2.00;;;;;14.51;53.96;101493.59;5050938;28;45030;-62
2022/11/05 11:18:23;;;;;;;;;3.00;3.00;;;;;14.54;54.23;101500.81;5038557;28;45470;-61
2022/11/05 11:20:49;;;;;;;;;2.67;1.67;;;;;14.59;54.27;101490.19;5038372;28;46286;-62
2022/11/05 11:23:15;;;;;;;;;6.33;5.67;;;;;14.62;54.59;101495.63;5043042;28;52604;-62
2022/11/05 11:25:56;;;;;;;;;6.00;4.00;;;;;14.61;54.62;101486.66;5038948;28;45292;-63
2022/11/05 11:28:25;;;;;;;;;5.00;5.00;;;;;14.66;54.78;101489.47;5035507;28;45569;-62
2022/11/05 11:31:04;;;;;;;;;4.33;3.00;;;;;14.69;54.47;101482.34;5037872;28;45357;-63
2022/11/05 11:33:32;;;;;;;;;7.00;3.00;;;;;14.73;54.59;101484.25;5033868;28;45599;-63
2022/11/05 11:35:58;;;;;;;;;6.00;4.67;;;;;14.76;54.44;101482.50;5037865;28;45732;-63
2022/11/05 11:38:28;;;;;;;;;5.00;1.00;;;;;14.81;54.45;101483.50;5049557;28;45367;-61
2022/11/05 11:41:20;;;;;;;;;8.00;6.00;;;;;14.84;54.46;101475.50;5051178;28;46061;-61
2022/11/05 11:43:45;;;;;;;;;13.00;11.67;;;;;14.89;54.69;101474.69;5046020;28;46337;-62
2022/11/05 11:46:17;;;;;;;;;1.67;1.67;;;;;14.95;54.41;101473.94;5048369;28;45432;-63
2022/11/05 11:48:46;;;;;;;;;4.67;3.00;;;;;14.97;53.91;101469.47;5042682;28;45526;-61
2022/11/05 11:51:30;;;;;;;;;6.00;5.67;;;;;14.95;54.26;101464.94;5043259;28;46107;-62
2022/11/05 11:53:58;;;;;;;;;4.67;4.00;;;;;14.96;54.61;101473.03;5050768;28;45418;-63
2022/11/05 11:56:23;;;;;;;;;4.00;2.67;;;;;14.98;54.45;101471.31;5050505;28;45241;-62
2022/11/05 11:58:53;;;;;;;;;6.00;5.00;;;;;15.00;54.15;101469.53;5047227;28;45592;-63
2022/11/05 12:01:37;;;;;;;;;6.00;5.00;;;;;15.05;54.26;101469.63;5051898;28;45127;-63
2022/11/05 12:04:09;;;;;;;;;7.33;5.67;;;;;15.04;53.90;101462.44;5044540;28;45447;-62
2022/11/05 12:07:12;;;;;;;;;5.33;3.00;;;;;15.11;53.67;101465.28;5040114;28;45523;-60
2022/11/05 12:10:05;;;;;;;;;7.67;5.33;;;;;15.18;53.82;101470.75;5047214;28;45301;-61
2022/11/05 12:13:13;;;;;;;;;5.00;3.67;;;;;15.23;53.39;101461.91;5043174;28;46719;-63